Time;durP1;ratioP1;P1;durP2;ratioP2;P2;SDS_P1;SDS_P2;PMS_P1;PMS_P2;Temp;Humidity;BMP_temperature;BMP_pressure;BME280_temperature;BME280_humidity;BME280_pressure;Samples;Min_cycle;Max_cycle;Signal;HPM_P1;HPM_P2
2024/04/14 00:01:06;;;;;;;4.40;1.70;;;;;;;11.25;100.00;100056.30;105882;1261;74220;-54
2024/04/14 00:03:33;;;;;;;3.60;1.80;;;;;;;11.20;100.00;100059.42;106037;1263;67330;-54
2024/04/14 00:06:00;;;;;;;3.60;1.80;;;;;;;11.16;100.00;100058.36;106055;1260;72789;-56
2024/04/14 00:08:27;;;;;;;4.00;2.40;;;;;;;11.13;100.00;100063.16;105838;1266;60540;-53
2024/04/14 00:10:57;;;;;;;4.70;2.50;;;;;;;11.08;100.00;100064.25;106137;1257;60889;-54
2024/04/14 00:13:24;;;;;;;2.90;2.10;;;;;;;11.02;100.00;100061.69;105913;1276;72605;-55
2024/04/14 00:16:01;;;;;;;3.10;2.10;;;;;;;10.93;100.00;100063.31;105947;1257;65960;-56
2024/04/14 00:18:28;;;;;;;2.60;2.00;;;;;;;10.85;100.00;100067.84;105854;1260;73024;-56
2024/04/14 00:20:55;;;;;;;8.00;2.80;;;;;;;10.76;100.00;100072.18;105861;1261;60571;-57
2024/04/14 00:23:22;;;;;;;2.20;1.90;;;;;;;10.66;100.00;100072.09;105926;1262;60639;-56
2024/04/14 00:25:48;;;;;;;5.60;2.00;;;;;;;10.54;100.00;100073.86;106029;1262;74190;-54
2024/04/14 00:28:16;;;;;;;3.90;1.90;;;;;;;10.44;100.00;100076.45;105829;1262;65995;-57
2024/04/14 00:30:42;;;;;;;10.30;3.30;;;;;;;10.36;100.00;100079.29;105843;1262;71925;-55
2024/04/14 00:33:09;;;;;;;4.70;2.00;;;;;;;10.29;100.00;100080.13;105925;1263;60654;-55
2024/04/14 00:35:36;;;;;;;3.80;1.70;;;;;;;10.24;100.00;100078.53;105831;1260;62079;-55
2024/04/14 00:38:03;;;;;;;4.20;2.10;;;;;;;10.22;100.00;100075.41;105773;1261;74087;-55
2024/04/14 00:40:30;;;;;;;2.90;1.50;;;;;;;10.18;100.00;100075.38;105839;1271;67167;-56
2024/04/14 00:42:56;;;;;;;4.30;1.60;;;;;;;10.17;100.00;100075.58;105759;1257;72922;-57
2024/04/14 00:45:23;;;;;;;7.20;2.70;;;;;;;10.20;100.00;100075.30;107008;1257;61122;-54
2024/04/14 00:47:50;;;;;;;5.90;2.20;;;;;;;10.24;100.00;100069.02;105765;1263;61068;-56
2024/04/14 00:50:17;;;;;;;2.10;1.90;;;;;;;10.30;100.00;100065.40;105844;1263;73179;-54
2024/04/14 00:52:44;;;;;;;3.20;2.90;;;;;;;10.36;100.00;100067.11;105866;1257;66881;-55
2024/04/14 00:55:11;;;;;;;4.90;2.60;;;;;;;10.41;100.00;100073.70;105857;1261;72875;-57
2024/04/14 00:57:37;;;;;;;3.60;2.10;;;;;;;10.43;100.00;100068.41;106040;1258;60441;-55
2024/04/14 01:00:05;;;;;;;8.70;2.90;;;;;;;10.44;100.00;100068.73;105858;1257;60510;-54
2024/04/14 01:02:34;;;;;;;4.60;3.50;;;;;;;10.44;100.00;100069.10;106052;1260;74007;-53
2024/04/14 01:05:01;;;;;;;4.80;3.60;;;;;;;10.42;100.00;100069.17;105900;1256;68196;-54
2024/04/14 01:07:28;;;;;;;3.60;2.60;;;;;;;10.39;100.00;100064.64;106111;1257;71513;-54
2024/04/14 01:09:55;;;;;;;6.70;2.20;;;;;;;10.34;100.00;100064.48;105871;1257;60840;-56
2024/04/14 01:12:22;;;;;;;4.60;2.90;;;;;;;10.28;100.00;100060.65;105849;1257;60121;-55
2024/04/14 01:14:50;;;;;;;3.50;2.50;;;;;;;10.22;100.00;100064.27;106088;1254;74617;-55
2024/04/14 01:17:18;;;;;;;3.70;2.60;;;;;;;10.18;100.00;100066.05;108382;1256;66817;-56
2024/04/14 01:19:44;;;;;;;5.30;2.00;;;;;;;10.18;100.00;100064.98;106246;1256;73052;-55
2024/04/14 01:22:11;;;;;;;3.80;2.50;;;;;;;10.20;100.00;100063.30;106003;1254;61871;-56
2024/04/14 01:24:38;;;;;;;4.80;2.80;;;;;;;10.21;100.00;100061.61;106625;1256;61859;-54
2024/04/14 01:27:05;;;;;;;3.20;2.90;;;;;;;10.22;100.00;100063.72;107320;1254;73444;-55
2024/04/14 01:29:32;;;;;;;3.50;3.20;;;;;;;10.21;100.00;100067.00;106073;1256;65985;-58
2024/04/14 01:31:58;;;;;;;3.50;3.10;;;;;;;10.19;100.00;100071.04;106143;1256;73230;-56
2024/04/14 01:34:25;;;;;;;4.10;3.10;;;;;;;10.15;100.00;100066.50;106114;1254;62151;-55
2024/04/14 01:36:52;;;;;;;6.50;3.60;;;;;;;10.11;100.00;100071.16;106279;1254;60231;-54
2024/04/14 01:39:19;;;;;;;3.70;2.90;;;;;;;10.10;100.00;100070.50;106097;1254;72588;-53
2024/04/14 01:41:46;;;;;;;5.00;2.80;;;;;;;10.08;100.00;100068.57;106037;1257;66524;-54
2024/04/14 01:44:14;;;;;;;2.70;2.00;;;;;;;10.09;100.00;100067.86;106105;1254;72653;-56
2024/04/14 01:46:48;;;;;;;4.00;1.90;;;;;;;10.07;100.00;100069.17;106140;1254;60699;-55
2024/04/14 01:49:14;;;;;;;6.90;2.20;;;;;;;10.04;100.00;100068.61;106114;1256;61330;-53
2024/04/14 01:51:42;;;;;;;2.10;1.50;;;;;;;10.02;100.00;100066.90;106111;1257;73997;-55
2024/04/14 01:54:10;;;;;;;2.50;1.60;;;;;;;10.03;100.00;100064.86;106446;1257;65260;-55
2024/04/14 01:56:37;;;;;;;2.20;1.30;;;;;;;9.99;100.00;100073.44;106150;1254;72013;-58
2024/04/14 01:59:04;;;;;;;2.00;1.90;;;;;;;9.93;100.00;100078.35;106090;1255;61371;-59
2024/04/14 02:01:31;;;;;;;3.30;2.20;;;;;;;9.91;100.00;100082.40;106345;1255;61862;-58
2024/04/14 02:03:58;;;;;;;5.70;3.30;;;;;;;9.87;100.00;100092.39;106102;1257;74069;-58
2024/04/14 02:06:25;;;;;;;5.70;2.10;;;;;;;9.82;100.00;100094.20;109229;1253;67419;-58
2024/04/14 02:08:52;;;;;;;2.20;1.90;;;;;;;9.77;100.00;100094.08;109291;1253;72941;-58
2024/04/14 02:11:18;;;;;;;4.30;2.20;;;;;;;9.76;100.00;100088.36;109218;1254;60718;-58
2024/04/14 02:13:45;;;;;;;3.30;2.60;;;;;;;9.79;100.00;100095.77;109297;1254;60971;-58
2024/04/14 02:16:11;;;;;;;3.80;2.00;;;;;;;9.82;100.00;100096.35;109245;1252;72869;-58
2024/04/14 02:18:38;;;;;;;2.20;1.90;;;;;;;9.87;100.00;100099.90;109183;1254;66958;-58
2024/04/14 02:21:05;;;;;;;4.60;1.50;;;;;;;9.93;100.00;100099.54;107192;1254;71388;-58
2024/04/14 02:23:32;;;;;;;3.20;1.50;;;;;;;9.99;100.00;100107.89;109164;1253;60360;-59
2024/04/14 02:25:59;;;;;;;2.20;1.70;;;;;;;10.01;100.00;100107.27;109244;1253;60330;-58
2024/04/14 02:28:25;;;;;;;2.20;1.50;;;;;;;10.03;100.00;100110.23;109133;1253;74493;-58
2024/04/14 02:30:52;;;;;;;1.80;1.70;;;;;;;10.06;100.00;100105.45;109198;1254;67021;-58
2024/04/14 02:33:19;;;;;;;1.60;1.40;;;;;;;10.08;100.00;100105.88;109261;1254;73617;-59
2024/04/14 02:35:59;;;;;;;3.80;2.10;;;;;;;10.13;100.00;100103.90;109189;1253;60710;-59
2024/04/14 02:38:25;;;;;;;2.70;2.00;;;;;;;10.17;100.00;100105.36;109259;1254;59303;-59
2024/04/14 02:40:55;;;;;;;2.70;2.20;;;;;;;10.20;100.00;100102.05;109190;1254;74744;-58
2024/04/14 02:43:22;;;;;;;2.10;1.90;;;;;;;10.21;100.00;100095.16;109338;1254;65917;-59
2024/04/14 02:45:48;;;;;;;4.20;2.50;;;;;;;10.21;100.00;100090.48;108586;1253;72369;-59
2024/04/14 02:48:16;;;;;;;2.20;1.90;;;;;;;10.23;100.00;100089.70;106107;1254;61871;-59
2024/04/14 02:50:42;;;;;;;3.50;2.10;;;;;;;10.22;100.00;100090.42;106322;1256;61358;-58
2024/04/14 02:53:10;;;;;;;1.70;1.60;;;;;;;10.19;100.00;100083.57;106044;1256;74965;-57
2024/04/14 02:55:37;;;;;;;1.90;1.70;;;;;;;10.17;100.00;100081.88;106323;1259;65730;-57
2024/04/14 02:58:05;;;;;;;2.40;1.50;;;;;;;10.15;100.00;100078.14;106652;1254;72891;-57
2024/04/14 03:00:32;;;;;;;1.50;1.30;;;;;;;10.13;100.00;100078.08;109178;1253;61841;-58
2024/04/14 03:02:58;;;;;;;3.40;1.50;;;;;;;10.12;100.00;100069.85;107503;1254;61128;-58
2024/04/14 03:05:25;;;;;;;3.60;1.60;;;;;;;10.13;100.00;100062.11;106108;1254;73872;-58
2024/04/14 03:07:52;;;;;;;4.30;4.00;;;;;;;10.13;100.00;100058.52;106096;1257;68136;-57
2024/04/14 03:10:19;;;;;;;4.50;4.20;;;;;;;10.13;100.00;100056.70;106072;1254;73222;-57
2024/04/14 03:12:46;;;;;;;5.00;4.70;;;;;;;10.13;100.00;100064.41;106401;1263;61240;-58
2024/04/14 03:15:12;;;;;;;4.50;4.10;;;;;;;10.10;100.00;100068.34;106084;1256;61256;-58
2024/04/14 03:17:39;;;;;;;4.40;4.10;;;;;;;10.02;100.00;100073.86;106135;1253;76549;-58
2024/04/14 03:20:06;;;;;;;4.00;2.50;;;;;;;9.94;100.00;100080.82;106447;1255;66091;-57
2024/04/14 03:22:33;;;;;;;3.40;1.90;;;;;;;9.87;100.00;100081.10;106240;1254;73676;-58
2024/04/14 03:25:00;;;;;;;2.20;1.50;;;;;;;9.81;100.00;100078.65;106027;1270;61297;-58
2024/04/14 03:27:26;;;;;;;2.00;1.30;;;;;;;9.78;100.00;100077.48;106046;1258;62014;-58
2024/04/14 03:29:53;;;;;;;2.80;1.60;;;;;;;9.80;100.00;100077.96;106088;1254;74759;-57
2024/04/14 03:32:20;;;;;;;2.60;1.40;;;;;;;9.83;100.00;100074.64;106053;1253;66525;-57
2024/04/14 03:34:47;;;;;;;2.90;1.00;;;;;;;9.86;100.00;100076.30;106014;1256;73220;-58
2024/04/14 03:37:14;;;;;;;1.40;1.10;;;;;;;9.89;100.00;100073.14;106086;1257;61696;-58
2024/04/14 03:39:41;;;;;;;2.70;1.70;;;;;;;9.93;100.00;100071.41;106110;1259;62162;-57
2024/04/14 03:42:08;;;;;;;1.70;1.10;;;;;;;9.96;100.00;100071.59;106088;1256;74857;-58
2024/04/14 03:44:37;;;;;;;1.60;1.50;;;;;;;9.99;100.00;100071.84;106162;1254;66346;-57
2024/04/14 03:47:04;;;;;;;2.70;1.40;;;;;;;10.01;100.00;100072.29;106072;1265;72755;-58
2024/04/14 03:49:31;;;;;;;2.70;1.30;;;;;;;10.04;100.00;100074.85;106002;1270;61327;-58
2024/04/14 03:51:57;;;;;;;2.20;1.70;;;;;;;10.05;100.00;100071.76;106012;1257;61346;-59
2024/04/14 03:54:25;;;;;;;2.40;1.40;;;;;;;10.06;100.00;100072.62;105966;1257;75012;-58
2024/04/14 03:56:51;;;;;;;3.40;1.50;;;;;;;10.07;100.00;100066.83;106053;1257;66393;-58
2024/04/14 03:59:18;;;;;;;3.00;1.40;;;;;;;10.11;100.00;100064.20;106080;1254;73091;-58
2024/04/14 04:01:45;;;;;;;1.80;1.40;;;;;;;10.14;100.00;100062.78;106047;1259;63490;-58
2024/04/14 04:04:11;;;;;;;2.30;1.10;;;;;;;10.21;100.00;100067.38;106118;1256;61269;-59
2024/04/14 04:06:39;;;;;;;2.80;1.50;;;;;;;10.37;100.00;100069.90;106116;1259;72738;-58
2024/04/14 04:09:07;;;;;;;2.90;1.40;;;;;;;10.68;100.00;100077.73;106115;1256;66746;-59
2024/04/14 04:11:35;;;;;;;2.80;1.60;;;;;;;11.10;100.00;100078.74;106111;1257;73754;-58
2024/04/14 04:14:02;;;;;;;1.70;1.60;;;;;;;11.52;100.00;100081.29;106346;1255;61186;-58
2024/04/14 04:16:29;;;;;;;4.20;2.60;;;;;;;11.93;100.00;100076.80;106378;1254;60052;-58
2024/04/14 04:18:56;;;;;;;2.60;2.30;;;;;;;12.40;100.00;100074.84;106115;1257;73356;-57
2024/04/14 04:21:37;;;;;;;4.00;2.70;;;;;;;12.91;100.00;100073.45;106198;1257;67130;-58
2024/04/14 04:24:04;;;;;;;2.60;2.10;;;;;;;13.32;100.00;100070.70;106409;1253;73091;-58
2024/04/14 04:26:31;;;;;;;2.40;2.30;;;;;;;13.68;100.00;100070.69;106087;1259;61330;-58
2024/04/14 04:28:58;;;;;;;3.20;1.70;;;;;;;14.02;100.00;100078.67;106073;1269;61327;-57
2024/04/14 04:31:24;;;;;;;2.40;2.20;;;;;;;14.33;100.00;100075.59;106133;1255;73612;-59
2024/04/14 04:33:51;;;;;;;5.70;1.80;;;;;;;14.64;100.00;100073.77;106100;1254;73686;-58
2024/04/14 04:36:18;;;;;;;1.90;1.40;;;;;;;14.97;100.00;100073.78;106079;1256;72638;-59
2024/04/14 04:38:45;;;;;;;1.50;1.40;;;;;;;15.21;100.00;100078.04;106034;1268;61528;-58
2024/04/14 04:41:12;;;;;;;1.10;1.00;;;;;;;15.36;100.00;100080.17;106080;1266;60909;-58
2024/04/14 04:43:39;;;;;;;1.40;1.30;;;;;;;15.41;100.00;100086.17;106052;1261;75020;-58
2024/04/14 04:46:05;;;;;;;1.00;0.90;;;;;;;15.38;100.00;100089.11;106253;1254;65792;-57
2024/04/14 04:48:32;;;;;;;4.10;1.20;;;;;;;15.30;100.00;100082.53;106038;1268;72868;-58
2024/04/14 04:50:59;;;;;;;1.80;0.90;;;;;;;15.18;100.00;100078.77;106160;1266;61345;-59
2024/04/14 04:53:26;;;;;;;5.50;1.00;;;;;;;14.99;100.00;100078.54;106107;1261;61237;-58
2024/04/14 04:55:53;;;;;;;4.90;0.80;;;;;;;14.80;100.00;100071.00;106112;1258;75082;-58
2024/04/14 04:58:19;;;;;;;1.00;0.80;;;;;;;14.60;100.00;100070.22;106376;1257;66727;-58
2024/04/14 05:00:57;;;;;;;1.90;0.90;;;;;;;14.43;100.00;100065.50;106141;1254;73170;-59
2024/04/14 05:03:24;;;;;;;2.50;0.80;;;;;;;14.30;100.00;100066.59;107727;1257;61329;-60
2024/04/14 05:06:01;;;;;;;0.90;0.60;;;;;;;14.21;100.00;100068.56;106228;1257;62127;-57
2024/04/14 05:08:28;;;;;;;1.80;0.70;;;;;;;14.12;100.00;100066.20;109249;1256;75064;-57
2024/04/14 05:10:56;;;;;;;0.60;0.60;;;;;;;14.06;100.00;100070.34;109232;1254;65654;-57
2024/04/14 05:13:23;;;;;;;2.60;0.60;;;;;;;14.03;100.00;100070.67;109285;1255;72912;-57
2024/04/14 05:15:50;;;;;;;1.10;0.80;;;;;;;14.03;100.00;100064.54;109223;1254;59781;-57
2024/04/14 05:18:16;;;;;;;0.60;0.60;;;;;;;14.03;100.00;100065.13;109243;1256;60705;-58
2024/04/14 05:20:43;;;;;;;0.50;0.50;;;;;;;14.01;100.00;100057.05;109202;1254;73351;-58
2024/04/14 05:23:10;;;;;;;0.60;0.50;;;;;;;13.98;100.00;100066.09;109269;1253;65411;-57
2024/04/14 05:25:37;;;;;;;0.60;0.50;;;;;;;13.95;100.00;100066.94;106964;1254;71119;-58
2024/04/14 05:28:04;;;;;;;1.00;0.60;;;;;;;13.96;100.00;100065.28;106094;1257;61403;-58
2024/04/14 05:30:31;;;;;;;1.10;0.50;;;;;;;13.97;100.00;100061.28;109294;1253;60839;-59
2024/04/14 05:32:58;;;;;;;1.20;0.50;;;;;;;13.96;100.00;100055.90;109203;1254;74309;-58
2024/04/14 05:35:24;;;;;;;0.60;0.50;;;;;;;13.97;100.00;100056.95;109221;1255;66784;-58
2024/04/14 05:37:51;;;;;;;2.00;0.50;;;;;;;14.00;100.00;100055.86;109282;1254;71325;-59
2024/04/14 05:40:18;;;;;;;1.30;0.50;;;;;;;14.06;100.00;100053.73;109210;1253;59193;-59
2024/04/14 05:42:45;;;;;;;2.70;0.50;;;;;;;14.11;100.00;100060.12;109048;1254;60174;-59
2024/04/14 05:45:24;;;;;;;0.70;0.50;;;;;;;14.15;100.00;100055.17;106032;1259;74185;-56
2024/04/14 05:47:54;;;;;;;1.00;0.40;;;;;;;14.18;100.00;100051.27;108674;1256;65638;-55
2024/04/14 05:50:22;;;;;;;0.60;0.50;;;;;;;14.20;100.00;100057.80;107057;1254;71442;-56
2024/04/14 05:52:49;;;;;;;1.30;0.60;;;;;;;14.21;100.00;100054.26;106279;1257;61439;-55
2024/04/14 05:55:15;;;;;;;0.50;0.50;;;;;;;14.25;100.00;100050.43;106750;1257;61337;-58
2024/04/14 05:57:42;;;;;;;0.80;0.40;;;;;;;14.31;100.00;100051.54;106120;1254;76959;-57
2024/04/14 06:00:09;;;;;;;2.30;0.40;;;;;;;14.34;100.00;100050.98;106070;1254;67928;-56
2024/04/14 06:02:42;;;;;;;2.50;0.60;;;;;;;14.41;100.00;100051.35;106203;1257;73091;-56
2024/04/14 06:05:09;;;;;;;0.90;0.50;;;;;;;14.46;100.00;100054.50;106124;1257;61409;-56
2024/04/14 06:07:36;;;;;;;0.90;0.40;;;;;;;14.50;100.00;100051.68;106149;1266;61275;-57
2024/04/14 06:10:03;;;;;;;0.60;0.50;;;;;;;14.52;100.00;100046.52;106549;1254;74657;-55
2024/04/14 06:12:31;;;;;;;0.50;0.50;;;;;;;14.56;100.00;100040.85;106246;1259;64884;-56
2024/04/14 06:14:58;;;;;;;0.70;0.50;;;;;;;14.61;100.00;100041.11;106203;1266;72551;-55
2024/04/14 06:17:26;;;;;;;1.60;0.50;;;;;;;14.66;100.00;100042.60;106497;1256;61307;-54
2024/04/14 06:19:52;;;;;;;0.50;0.40;;;;;;;14.70;100.00;100040.73;106293;1253;61266;-57
2024/04/14 06:22:19;;;;;;;1.70;0.50;;;;;;;14.74;100.00;100038.50;106095;1256;74682;-57
2024/04/14 06:24:46;;;;;;;0.60;0.60;;;;;;;14.77;100.00;100036.16;106071;1264;66822;-56
2024/04/14 06:27:12;;;;;;;0.50;0.50;;;;;;;14.81;100.00;100032.48;106132;1253;72963;-57
2024/04/14 06:29:39;;;;;;;0.50;0.30;;;;;;;14.84;100.00;100028.12;106113;1257;61254;-56
2024/04/14 06:32:06;;;;;;;0.40;0.30;;;;;;;14.86;100.00;100024.80;106825;1255;62001;-57
2024/04/14 06:34:33;;;;;;;0.30;0.30;;;;;;;14.88;100.00;100023.36;106069;1259;74069;-57
2024/04/14 06:37:00;;;;;;;0.50;0.40;;;;;;;14.92;100.00;100024.01;106029;1262;66023;-56
2024/04/14 06:39:27;;;;;;;0.30;0.30;;;;;;;14.99;100.00;100018.91;106617;1257;72052;-57
2024/04/14 06:41:54;;;;;;;0.30;0.30;;;;;;;15.05;100.00;100020.14;106215;1253;61796;-56
2024/04/14 06:44:21;;;;;;;1.70;0.30;;;;;;;15.12;100.00;100020.02;106187;1260;60402;-58
2024/04/14 06:46:48;;;;;;;0.60;0.30;;;;;;;15.21;100.00;100015.17;106127;1266;74524;-57
2024/04/14 06:49:14;;;;;;;0.40;0.20;;;;;;;15.29;100.00;100010.52;106210;1257;67415;-56
2024/04/14 06:51:41;;;;;;;1.90;0.30;;;;;;;15.38;100.00;100015.90;105869;1260;72544;-56
2024/04/14 06:54:08;;;;;;;0.40;0.20;;;;;;;15.45;100.00;100019.23;106345;1259;61324;-58
2024/04/14 06:56:35;;;;;;;1.00;0.30;;;;;;;15.50;100.00;100018.33;106236;1253;62140;-57
2024/04/14 06:59:02;;;;;;;0.20;0.20;;;;;;;15.54;100.00;100016.70;106603;1259;74956;-54
2024/04/14 07:01:30;;;;;;;0.70;0.40;;;;;;;15.57;100.00;100015.95;106204;1258;66922;-56
2024/04/14 07:03:57;;;;;;;0.50;0.20;;;;;;;15.63;100.00;100013.60;105918;1254;72962;-56
2024/04/14 07:06:23;;;;;;;0.40;0.30;;;;;;;15.68;100.00;100014.10;106212;1259;62349;-58
2024/04/14 07:08:51;;;;;;;1.70;0.20;;;;;;;15.71;100.00;100011.02;106290;1254;61371;-57
2024/04/14 07:11:19;;;;;;;1.90;0.30;;;;;;;15.75;100.00;100005.00;106118;1260;75268;-58
2024/04/14 07:13:46;;;;;;;0.40;0.30;;;;;;;15.76;100.00;100007.09;106308;1259;67220;-55
2024/04/14 07:16:13;;;;;;;0.50;0.30;;;;;;;15.75;100.00;100008.27;106067;1260;73379;-56
2024/04/14 07:18:40;;;;;;;0.70;0.30;;;;;;;15.75;100.00;100004.23;106214;1256;62169;-58
2024/04/14 07:21:07;;;;;;;0.90;0.30;;;;;;;15.76;100.00;100007.96;106126;1266;61227;-58
2024/04/14 07:23:34;;;;;;;0.40;0.30;;;;;;;15.78;100.00;100010.23;106039;1268;75129;-58
2024/04/14 07:26:01;;;;;;;0.30;0.30;;;;;;;15.77;100.00;100009.58;106380;1258;65837;-57
2024/04/14 07:28:31;;;;;;;0.40;0.40;;;;;;;15.77;100.00;100005.73;106086;1253;71287;-55
2024/04/14 07:30:58;;;;;;;0.70;0.30;;;;;;;15.81;100.00;100005.89;106540;1254;61257;-56
2024/04/14 07:33:25;;;;;;;0.90;0.40;;;;;;;15.85;100.00;100002.70;106038;1253;60069;-59
2024/04/14 07:35:52;;;;;;;0.50;0.30;;;;;;;15.90;100.00;100004.19;106148;1260;74266;-58
2024/04/14 07:38:19;;;;;;;0.80;0.30;;;;;;;15.96;100.00;99994.58;106540;1256;66745;-58
2024/04/14 07:40:46;;;;;;;0.80;0.30;;;;;;;16.06;100.00;99994.09;106030;1261;72830;-56
2024/04/14 07:43:12;;;;;;;1.50;0.30;;;;;;;16.15;100.00;99993.59;106125;1260;61295;-58
2024/04/14 07:45:40;;;;;;;2.20;1.00;;;;;;;16.26;100.00;99987.28;106190;1254;61209;-59
2024/04/14 07:48:07;;;;;;;0.60;0.40;;;;;;;16.36;100.00;99986.05;106074;1267;73442;-59
2024/04/14 07:50:35;;;;;;;1.30;0.50;;;;;;;16.42;100.00;99986.66;106299;1267;66776;-58
2024/04/14 07:53:02;;;;;;;1.30;0.50;;;;;;;16.46;100.00;99983.36;106110;1254;72710;-56
2024/04/14 07:55:29;;;;;;;1.60;0.60;;;;;;;16.51;100.00;99976.27;106364;1261;61233;-58
2024/04/14 07:57:56;;;;;;;0.70;0.50;;;;;;;16.57;100.00;99969.36;106097;1267;61247;-58
2024/04/14 08:00:23;;;;;;;1.60;0.50;;;;;;;16.62;100.00;99965.58;106084;1260;76160;-57
2024/04/14 08:02:50;;;;;;;1.10;0.40;;;;;;;16.70;100.00;99963.98;106154;1263;67615;-56
2024/04/14 08:05:17;;;;;;;0.60;0.40;;;;;;;16.80;100.00;99964.69;106299;1257;72817;-56
2024/04/14 08:07:44;;;;;;;0.80;0.50;;;;;;;16.92;100.00;99960.54;106832;1264;61359;-58
2024/04/14 08:10:12;;;;;;;2.80;0.40;;;;;;;17.05;100.00;99959.66;106157;1259;61311;-57
2024/04/14 08:12:39;;;;;;;0.70;0.50;;;;;;;17.16;100.00;99962.81;109290;1256;74901;-57
2024/04/14 08:15:06;;;;;;;0.70;0.50;;;;;;;17.28;100.00;99959.42;109280;1254;65981;-56
2024/04/14 08:17:34;;;;;;;0.90;0.50;;;;;;;17.40;100.00;99957.25;109150;1253;72586;-56
2024/04/14 08:20:00;;;;;;;2.50;0.40;;;;;;;17.48;100.00;99952.67;109219;1254;59807;-56
2024/04/14 08:22:28;;;;;;;0.80;0.50;;;;;;;17.57;100.00;99954.23;109330;1256;60225;-54
2024/04/14 08:24:54;;;;;;;0.80;0.50;;;;;;;17.62;100.00;99951.63;109221;1254;74264;-56
2024/04/14 08:27:21;;;;;;;0.70;0.50;;;;;;;17.69;100.00;99942.41;109143;1254;67126;-56
2024/04/14 08:29:48;;;;;;;0.60;0.50;;;;;;;17.77;100.00;99934.74;109236;1253;71240;-55
2024/04/14 08:32:15;;;;;;;0.50;0.40;;;;;;;17.87;100.00;99928.23;109195;1254;60856;-56
2024/04/14 08:34:41;;;;;;;0.90;0.40;;;;;;;17.97;100.00;99926.53;109223;1253;59827;-56
2024/04/14 08:37:08;;;;;;;0.60;0.40;;;;;;;18.08;100.00;99919.52;109158;1254;74325;-56
2024/04/14 08:39:35;;;;;;;0.60;0.30;;;;;;;18.19;100.00;99915.92;109150;1254;65916;-55
2024/04/14 08:42:02;;;;;;;1.40;0.40;;;;;;;18.29;100.00;99914.05;109230;1254;72512;-57
2024/04/14 08:44:29;;;;;;;2.70;0.40;;;;;;;18.35;100.00;99907.42;109051;1254;60324;-57
2024/04/14 08:46:55;;;;;;;0.50;0.40;;;;;;;18.39;100.00;99907.09;109052;1254;60189;-57
2024/04/14 08:49:22;;;;;;;3.10;0.40;;;;;;;18.44;100.00;99908.94;107387;1254;74434;-59
2024/04/14 08:51:49;;;;;;;1.30;0.50;;;;;;;18.45;100.00;99912.05;106375;1260;66142;-59
2024/04/14 08:54:16;;;;;;;0.80;0.40;;;;;;;18.47;100.00;99907.76;106092;1254;73449;-57
2024/04/14 08:56:43;;;;;;;0.70;0.40;;;;;;;18.49;100.00;99901.08;107036;1257;61235;-57
2024/04/14 08:59:10;;;;;;;0.50;0.40;;;;;;;18.55;100.00;99889.27;106087;1258;62108;-57
2024/04/14 09:01:37;;;;;;;8.90;0.70;;;;;;;18.62;100.00;99886.59;106018;1259;75653;-57
2024/04/14 09:04:04;;;;;;;1.50;0.60;;;;;;;18.70;100.00;99882.69;106066;1260;66587;-60
2024/04/14 09:06:32;;;;;;;3.30;1.10;;;;;;;18.76;100.00;99877.48;109275;1253;73121;-56
2024/04/14 09:08:59;;;;;;;1.00;0.70;;;;;;;18.79;100.00;99867.40;106480;1254;61321;-57
2024/04/14 09:11:26;;;;;;;1.00;0.60;;;;;;;18.83;100.00;99864.30;106291;1255;61257;-58
2024/04/14 09:13:53;;;;;;;1.90;0.50;;;;;;;18.93;100.00;99854.09;106769;1254;74867;-57
2024/04/14 09:16:20;;;;;;;0.60;0.50;;;;;;;19.02;100.00;99855.70;106044;1271;66208;-58
2024/04/14 09:18:47;;;;;;;1.60;0.70;;;;;;;19.10;100.00;99861.77;106208;1258;73236;-57
2024/04/14 09:21:14;;;;;;;1.50;0.50;;;;;;;19.16;100.00;99854.91;106356;1257;61067;-56
2024/04/14 09:23:41;;;;;;;1.10;0.70;;;;;;;19.20;100.00;99854.59;106063;1260;60209;-57
2024/04/14 09:26:07;;;;;;;4.40;0.60;;;;;;;19.28;100.00;99851.95;106050;1257;73439;-57
2024/04/14 09:28:34;;;;;;;0.90;0.70;;;;;;;19.36;100.00;99855.66;106061;1257;66786;-57
2024/04/14 09:31:01;;;;;;;1.20;0.50;;;;;;;19.43;100.00;99852.54;106095;1266;72961;-58
2024/04/14 09:33:28;;;;;;;1.10;0.70;;;;;;;19.48;100.00;99848.23;106407;1254;62235;-59
2024/04/14 09:35:55;;;;;;;0.80;0.70;;;;;;;19.50;100.00;99841.04;106319;1254;61199;-55
2024/04/14 09:38:22;;;;;;;1.50;0.70;;;;;;;19.46;100.00;99837.33;105978;1259;75242;-56
2024/04/14 09:40:49;;;;;;;2.20;0.60;;;;;;;19.47;100.00;99840.38;106103;1268;67936;-57
2024/04/14 09:43:16;;;;;;;1.10;0.60;;;;;;;19.50;100.00;99834.83;106048;1257;72684;-56
2024/04/14 09:45:43;;;;;;;3.10;0.70;;;;;;;19.50;100.00;99828.45;106306;1270;61316;-58
2024/04/14 09:48:10;;;;;;;1.10;0.90;;;;;;;19.51;100.00;99825.47;106076;1257;62709;-57
2024/04/14 09:50:37;;;;;;;1.10;0.70;;;;;;;19.55;100.00;99825.86;105943;1260;75507;-54
2024/04/14 09:53:04;;;;;;;1.30;0.70;;;;;;;19.57;100.00;99825.08;106200;1267;67833;-57
2024/04/14 09:55:31;;;;;;;0.90;0.70;;;;;;;19.60;100.00;99817.58;105994;1253;72534;-57
2024/04/14 09:57:58;;;;;;;2.00;1.10;;;;;;;19.63;100.00;99816.02;106406;1263;61275;-57
2024/04/14 10:00:25;;;;;;;1.00;0.70;;;;;;;19.67;100.00;99805.71;106486;1254;61113;-58
2024/04/14 10:02:57;;;;;;;1.80;0.70;;;;;;;19.71;100.00;99804.48;106001;1258;74682;-56
2024/04/14 10:05:24;;;;;;;1.70;0.70;;;;;;;19.77;100.00;99798.89;106252;1258;67118;-57
2024/04/14 10:07:51;;;;;;;3.00;0.60;;;;;;;19.82;100.00;99788.98;106083;1254;72466;-57
2024/04/14 10:10:21;;;;;;;1.80;0.80;;;;;;;19.88;100.00;99797.52;106020;1259;61388;-57
2024/04/14 10:12:48;;;;;;;2.40;1.20;;;;;;;19.93;100.00;99783.23;106213;1254;62181;-57
2024/04/14 10:15:15;;;;;;;1.00;0.60;;;;;;;19.96;100.00;99771.91;106160;1254;74526;-58
2024/04/14 10:17:42;;;;;;;3.70;0.70;;;;;;;19.98;100.00;99771.52;106490;1257;65827;-56
2024/04/14 10:20:12;;;;;;;0.80;0.70;;;;;;;19.98;100.00;99769.34;106197;1257;71588;-58
2024/04/14 10:22:40;;;;;;;2.50;0.50;;;;;;;19.99;100.00;99765.42;108660;1254;59961;-57
2024/04/14 10:25:25;;;;;;;1.30;0.60;;;;;;;20.02;100.00;99762.05;106113;1254;61225;-57
2024/04/14 10:27:52;;;;;;;1.40;0.60;;;;;;;20.07;100.00;99756.39;106335;1257;74318;-58
2024/04/14 10:32:30;;;;;;;0.80;0.60;;;;;;;20.14;100.00;99749.36;102744;1292;600560;-57
2024/04/14 10:34:57;;;;;;;1.80;0.60;;;;;;;20.14;100.00;99744.13;105218;1267;59897;-58
2024/04/14 10:37:29;;;;;;;1.00;0.70;;;;;;;20.15;100.00;99742.70;105253;1269;59753;-56
2024/04/14 10:39:56;;;;;;;1.50;0.70;;;;;;;20.19;100.00;99735.98;105765;1267;73827;-59
2024/04/14 10:42:23;;;;;;;0.90;0.80;;;;;;;20.21;100.00;99726.88;105121;1270;67056;-57
2024/04/14 10:44:50;;;;;;;4.20;0.60;;;;;;;20.24;100.00;99715.73;105211;1281;73015;-55
2024/04/14 10:47:17;;;;;;;0.80;0.60;;;;;;;20.27;100.00;99712.27;105169;1263;199609;-54
2024/04/14 10:49:49;;;;;;;2.90;0.60;;;;;;;20.32;100.00;99710.20;105494;1264;59759;-56
2024/04/14 10:52:16;;;;;;;2.70;0.60;;;;;;;20.39;100.00;99706.31;105359;1267;70904;-55
2024/04/14 10:54:43;;;;;;;1.00;0.60;;;;;;;20.48;100.00;99696.23;105519;1264;66956;-57
2024/04/14 10:57:10;;;;;;;3.70;0.60;;;;;;;20.55;100.00;99689.77;105968;1267;72380;-56
2024/04/14 10:59:37;;;;;;;0.90;0.60;;;;;;;20.59;100.00;99680.97;105538;1267;60998;-55
2024/04/14 11:02:04;;;;;;;2.00;0.60;;;;;;;20.61;100.00;99674.27;105439;1273;60838;-55
2024/04/14 11:04:34;;;;;;;0.90;0.60;;;;;;;20.60;100.00;99665.27;105384;1264;73496;-56
2024/04/14 11:07:01;;;;;;;2.70;0.50;;;;;;;20.61;100.00;99655.66;106795;1264;66249;-55
2024/04/14 11:09:29;;;;;;;3.60;0.60;;;;;;;20.65;100.00;99650.77;105266;1270;72607;-56
2024/04/14 11:11:57;;;;;;;1.30;0.90;;;;;;;20.68;100.00;99651.48;105632;1268;60323;-57
2024/04/14 11:14:23;;;;;;;3.00;0.40;;;;;;;20.71;100.00;99642.17;105584;1266;60798;-57